sensor_id;sensor_type;location;lat;lon;timestamp;temperature;humidity
22173;DHT22;11252;50.596;17.648;2023-03-11T00:00:26;9.70;92.20
22173;DHT22;11252;50.596;17.648;2023-03-11T00:02:56;9.70;92.20
22173;DHT22;11252;50.596;17.648;2023-03-11T00:05:29;9.70;92.20
22173;DHT22;11252;50.596;17.648;2023-03-11T00:07:57;9.60;92.20
22173;DHT22;11252;50.596;17.648;2023-03-11T00:10:30;9.50;92.20
22173;DHT22;11252;50.596;17.648;2023-03-11T00:12:59;9.50;92.20
22173;DHT22;11252;50.596;17.648;2023-03-11T00:15:27;9.50;92.20
22173;DHT22;11252;50.596;17.648;2023-03-11T00:17:56;9.40;92.20
22173;DHT22;11252;50.596;17.648;2023-03-11T00:22:56;9.30;92.20
22173;DHT22;11252;50.596;17.648;2023-03-11T00:25:25;9.20;92.20
22173;DHT22;11252;50.596;17.648;2023-03-11T00:27:53;9.20;92.20
22173;DHT22;11252;50.596;17.648;2023-03-11T00:30:21;9.20;92.20
22173;DHT22;11252;50.596;17.648;2023-03-11T00:32:51;9.20;92.20
22173;DHT22;11252;50.596;17.648;2023-03-11T00:35:24;9.10;92.20
22173;DHT22;11252;50.596;17.648;2023-03-11T00:37:57;9.10;92.20
22173;DHT22;11252;50.596;17.648;2023-03-11T00:40:27;9.10;92.20
22173;DHT22;11252;50.596;17.648;2023-03-11T00:42:56;9.00;92.20
22173;DHT22;11252;50.596;17.648;2023-03-11T00:45:24;9.00;92.10
22173;DHT22;11252;50.596;17.648;2023-03-11T00:47:53;9.00;91.60
22173;DHT22;11252;50.596;17.648;2023-03-11T00:50:23;9.00;91.40
22173;DHT22;11252;50.596;17.648;2023-03-11T00:52:51;9.00;91.60
22173;DHT22;11252;50.596;17.648;2023-03-11T00:55:22;9.00;91.20
22173;DHT22;11252;50.596;17.648;2023-03-11T00:57:54;8.90;91.80
22173;DHT22;11252;50.596;17.648;2023-03-11T01:00:23;8.80;91.30
22173;DHT22;11252;50.596;17.648;2023-03-11T01:02:51;8.80;91.30
22173;DHT22;11252;50.596;17.648;2023-03-11T01:05:21;8.80;91.10
22173;DHT22;11252;50.596;17.648;2023-03-11T01:07:49;8.80;90.50
22173;DHT22;11252;50.596;17.648;2023-03-11T01:10:17;8.80;90.50
22173;DHT22;11252;50.596;17.648;2023-03-11T01:12:44;8.70;90.10
22173;DHT22;11252;50.596;17.648;2023-03-11T01:15:21;8.70;89.70
22173;DHT22;11252;50.596;17.648;2023-03-11T01:17:49;8.70;90.00
22173;DHT22;11252;50.596;17.648;2023-03-11T01:20:16;8.60;90.10
22173;DHT22;11252;50.596;17.648;2023-03-11T01:22:44;8.60;90.00
22173;DHT22;11252;50.596;17.648;2023-03-11T01:25:17;8.60;90.00
22173;DHT22;11252;50.596;17.648;2023-03-11T01:27:45;8.50;90.20
22173;DHT22;11252;50.596;17.648;2023-03-11T01:30:18;8.50;90.10
22173;DHT22;11252;50.596;17.648;2023-03-11T01:32:46;8.50;90.30
22173;DHT22;11252;50.596;17.648;2023-03-11T01:35:16;8.50;91.00
22173;DHT22;11252;50.596;17.648;2023-03-11T01:37:44;8.40;91.20
22173;DHT22;11252;50.596;17.648;2023-03-11T01:40:33;8.40;92.20
22173;DHT22;11252;50.596;17.648;2023-03-11T01:43:03;8.30;92.20
22173;DHT22;11252;50.596;17.648;2023-03-11T01:48:16;8.10;92.20
22173;DHT22;11252;50.596;17.648;2023-03-11T01:50:46;8.00;92.20
22173;DHT22;11252;50.596;17.648;2023-03-11T01:53:16;7.90;92.20
22173;DHT22;11252;50.596;17.648;2023-03-11T01:55:44;7.80;92.20
22173;DHT22;11252;50.596;17.648;2023-03-11T01:58:20;7.80;92.20
22173;DHT22;11252;50.596;17.648;2023-03-11T02:00:49;7.80;92.20
22173;DHT22;11252;50.596;17.648;2023-03-11T02:03:32;7.80;92.20
22173;DHT22;11252;50.596;17.648;2023-03-11T02:06:01;7.70;92.20
22173;DHT22;11252;50.596;17.648;2023-03-11T02:08:29;7.60;92.20
22173;DHT22;11252;50.596;17.648;2023-03-11T02:11:02;7.60;92.20
22173;DHT22;11252;50.596;17.648;2023-03-11T02:13:31;7.50;92.20
22173;DHT22;11252;50.596;17.648;2023-03-11T02:16:02;7.60;92.20
22173;DHT22;11252;50.596;17.648;2023-03-11T02:18:30;7.50;92.20
22173;DHT22;11252;50.596;17.648;2023-03-11T02:21:23;7.60;92.20
22173;DHT22;11252;50.596;17.648;2023-03-11T02:24:12;7.60;92.20
22173;DHT22;11252;50.596;17.648;2023-03-11T02:29:24;7.60;92.20
22173;DHT22;11252;50.596;17.648;2023-03-11T02:31:53;7.50;92.20
22173;DHT22;11252;50.596;17.648;2023-03-11T02:34:25;7.50;92.20
22173;DHT22;11252;50.596;17.648;2023-03-11T02:36:52;7.40;92.20
22173;DHT22;11252;50.596;17.648;2023-03-11T02:39:38;7.40;92.20
22173;DHT22;11252;50.596;17.648;2023-03-11T02:45:11;7.30;92.20
22173;DHT22;11252;50.596;17.648;2023-03-11T02:47:40;7.30;92.20
22173;DHT22;11252;50.596;17.648;2023-03-11T02:50:11;7.20;92.20
22173;DHT22;11252;50.596;17.648;2023-03-11T02:52:40;7.10;92.20
22173;DHT22;11252;50.596;17.648;2023-03-11T02:55:08;7.10;92.20
22173;DHT22;11252;50.596;17.648;2023-03-11T02:57:37;7.00;92.20
22173;DHT22;11252;50.596;17.648;2023-03-11T03:00:06;6.90;92.20
22173;DHT22;11252;50.596;17.648;2023-03-11T03:02:37;6.80;92.20
22173;DHT22;11252;50.596;17.648;2023-03-11T03:05:04;6.70;92.20
22173;DHT22;11252;50.596;17.648;2023-03-11T03:07:32;6.60;92.20
22173;DHT22;11252;50.596;17.648;2023-03-11T03:09:59;6.50;92.20
22173;DHT22;11252;50.596;17.648;2023-03-11T03:12:27;6.50;92.20
22173;DHT22;11252;50.596;17.648;2023-03-11T03:14:54;6.40;92.20
22173;DHT22;11252;50.596;17.648;2023-03-11T03:17:21;6.40;92.20
22173;DHT22;11252;50.596;17.648;2023-03-11T03:19:49;6.30;92.20
22173;DHT22;11252;50.596;17.648;2023-03-11T03:22:16;6.30;92.20
22173;DHT22;11252;50.596;17.648;2023-03-11T03:24:43;6.30;92.20
22173;DHT22;11252;50.596;17.648;2023-03-11T03:27:11;6.20;92.20
22173;DHT22;11252;50.596;17.648;2023-03-11T03:29:38;6.20;92.20
22173;DHT22;11252;50.596;17.648;2023-03-11T03:32:05;6.20;92.20
22173;DHT22;11252;50.596;17.648;2023-03-11T03:34:33;6.10;92.20
22173;DHT22;11252;50.596;17.648;2023-03-11T03:37:01;6.10;92.20
22173;DHT22;11252;50.596;17.648;2023-03-11T03:39:28;6.00;92.20
22173;DHT22;11252;50.596;17.648;2023-03-11T03:41:56;5.90;92.20
22173;DHT22;11252;50.596;17.648;2023-03-11T03:44:24;5.80;92.20
22173;DHT22;11252;50.596;17.648;2023-03-11T03:46:51;5.70;92.20
22173;DHT22;11252;50.596;17.648;2023-03-11T03:49:18;5.60;92.20
22173;DHT22;11252;50.596;17.648;2023-03-11T03:51:45;5.50;92.20
22173;DHT22;11252;50.596;17.648;2023-03-11T03:54:14;5.30;92.20
22173;DHT22;11252;50.596;17.648;2023-03-11T03:56:41;5.10;92.20
22173;DHT22;11252;50.596;17.648;2023-03-11T03:59:09;4.90;92.20
22173;DHT22;11252;50.596;17.648;2023-03-11T04:01:36;4.80;92.20
22173;DHT22;11252;50.596;17.648;2023-03-11T04:04:03;4.70;92.20
22173;DHT22;11252;50.596;17.648;2023-03-11T04:06:31;4.60;92.20
22173;DHT22;11252;50.596;17.648;2023-03-11T04:08:58;4.60;92.20
22173;DHT22;11252;50.596;17.648;2023-03-11T04:11:26;4.60;92.20
22173;DHT22;11252;50.596;17.648;2023-03-11T04:13:54;4.60;92.20
22173;DHT22;11252;50.596;17.648;2023-03-11T04:16:22;4.70;92.20
22173;DHT22;11252;50.596;17.648;2023-03-11T04:18:50;4.70;92.20
22173;DHT22;11252;50.596;17.648;2023-03-11T04:21:17;4.60;92.20
22173;DHT22;11252;50.596;17.648;2023-03-11T04:23:44;4.60;92.20
22173;DHT22;11252;50.596;17.648;2023-03-11T04:26:12;4.50;92.20
22173;DHT22;11252;50.596;17.648;2023-03-11T04:28:39;4.50;92.20
22173;DHT22;11252;50.596;17.648;2023-03-11T04:31:07;4.50;92.20
22173;DHT22;11252;50.596;17.648;2023-03-11T04:33:34;4.40;92.20
22173;DHT22;11252;50.596;17.648;2023-03-11T04:36:06;4.30;92.20
22173;DHT22;11252;50.596;17.648;2023-03-11T04:38:34;4.20;92.20
22173;DHT22;11252;50.596;17.648;2023-03-11T04:41:03;4.10;92.20
22173;DHT22;11252;50.596;17.648;2023-03-11T04:43:32;4.00;92.20
22173;DHT22;11252;50.596;17.648;2023-03-11T04:45:59;3.90;92.20
22173;DHT22;11252;50.596;17.648;2023-03-11T04:48:26;3.70;92.20
22173;DHT22;11252;50.596;17.648;2023-03-11T04:50:54;3.60;92.20
22173;DHT22;11252;50.596;17.648;2023-03-11T04:53:22;3.40;92.20
22173;DHT22;11252;50.596;17.648;2023-03-11T04:55:50;3.30;92.20
22173;DHT22;11252;50.596;17.648;2023-03-11T04:58:19;3.30;92.20
22173;DHT22;11252;50.596;17.648;2023-03-11T05:00:46;3.20;92.20
22173;DHT22;11252;50.596;17.648;2023-03-11T05:03:14;3.10;92.20
22173;DHT22;11252;50.596;17.648;2023-03-11T05:05:41;3.10;92.20
22173;DHT22;11252;50.596;17.648;2023-03-11T05:08:08;3.10;92.20
22173;DHT22;11252;50.596;17.648;2023-03-11T05:10:38;3.10;92.20
22173;DHT22;11252;50.596;17.648;2023-03-11T05:13:05;3.20;92.20
22173;DHT22;11252;50.596;17.648;2023-03-11T05:15:32;3.20;92.20
22173;DHT22;11252;50.596;17.648;2023-03-11T05:18:00;3.20;92.20
22173;DHT22;11252;50.596;17.648;2023-03-11T05:20:27;3.30;92.20
22173;DHT22;11252;50.596;17.648;2023-03-11T05:22:54;3.30;92.20
22173;DHT22;11252;50.596;17.648;2023-03-11T05:25:22;3.30;92.20
22173;DHT22;11252;50.596;17.648;2023-03-11T05:27:49;3.30;92.20
22173;DHT22;11252;50.596;17.648;2023-03-11T05:30:16;3.30;92.20
22173;DHT22;11252;50.596;17.648;2023-03-11T05:32:44;3.30;92.20
22173;DHT22;11252;50.596;17.648;2023-03-11T05:35:12;3.30;92.20
22173;DHT22;11252;50.596;17.648;2023-03-11T05:37:39;3.30;92.20
22173;DHT22;11252;50.596;17.648;2023-03-11T05:40:09;3.30;92.20
22173;DHT22;11252;50.596;17.648;2023-03-11T05:42:37;3.30;92.20
22173;DHT22;11252;50.596;17.648;2023-03-11T05:45:08;3.30;92.20
22173;DHT22;11252;50.596;17.648;2023-03-11T05:47:35;3.30;92.20
22173;DHT22;11252;50.596;17.648;2023-03-11T05:50:03;3.30;92.20
22173;DHT22;11252;50.596;17.648;2023-03-11T05:52:30;3.30;92.20
22173;DHT22;11252;50.596;17.648;2023-03-11T05:54:59;3.40;92.20
22173;DHT22;11252;50.596;17.648;2023-03-11T05:57:27;3.40;92.20
22173;DHT22;11252;50.596;17.648;2023-03-11T05:59:54;3.40;92.20
22173;DHT22;11252;50.596;17.648;2023-03-11T06:02:22;3.40;92.20
22173;DHT22;11252;50.596;17.648;2023-03-11T06:04:50;3.30;92.20
22173;DHT22;11252;50.596;17.648;2023-03-11T06:07:18;3.20;92.20
22173;DHT22;11252;50.596;17.648;2023-03-11T06:09:45;3.20;92.20
22173;DHT22;11252;50.596;17.648;2023-03-11T06:12:12;3.20;92.20
22173;DHT22;11252;50.596;17.648;2023-03-11T06:14:40;3.20;92.20
22173;DHT22;11252;50.596;17.648;2023-03-11T06:17:07;3.10;92.20
22173;DHT22;11252;50.596;17.648;2023-03-11T06:19:35;3.00;92.20
22173;DHT22;11252;50.596;17.648;2023-03-11T06:22:02;3.00;92.20
22173;DHT22;11252;50.596;17.648;2023-03-11T06:24:29;3.00;92.20
22173;DHT22;11252;50.596;17.648;2023-03-11T06:26:57;2.90;92.20
22173;DHT22;11252;50.596;17.648;2023-03-11T06:29:24;2.90;92.20
22173;DHT22;11252;50.596;17.648;2023-03-11T06:31:52;2.90;92.20
22173;DHT22;11252;50.596;17.648;2023-03-11T06:34:20;2.80;92.20
22173;DHT22;11252;50.596;17.648;2023-03-11T06:36:47;2.80;92.20
22173;DHT22;11252;50.596;17.648;2023-03-11T06:39:14;2.80;92.20
22173;DHT22;11252;50.596;17.648;2023-03-11T06:41:42;2.80;92.20
22173;DHT22;11252;50.596;17.648;2023-03-11T06:44:10;2.70;92.20
22173;DHT22;11252;50.596;17.648;2023-03-11T06:46:38;2.70;92.20
22173;DHT22;11252;50.596;17.648;2023-03-11T06:49:05;2.60;92.20
22173;DHT22;11252;50.596;17.648;2023-03-11T06:51:33;2.50;92.20
22173;DHT22;11252;50.596;17.648;2023-03-11T06:54:00;2.40;92.20
22173;DHT22;11252;50.596;17.648;2023-03-11T06:56:28;2.40;92.20
22173;DHT22;11252;50.596;17.648;2023-03-11T06:58:55;2.40;92.20
22173;DHT22;11252;50.596;17.648;2023-03-11T07:01:24;2.30;92.20
22173;DHT22;11252;50.596;17.648;2023-03-11T07:03:52;2.20;92.20
22173;DHT22;11252;50.596;17.648;2023-03-11T07:06:22;2.20;92.20
22173;DHT22;11252;50.596;17.648;2023-03-11T07:08:51;2.10;92.20
22173;DHT22;11252;50.596;17.648;2023-03-11T07:11:23;2.10;92.20
22173;DHT22;11252;50.596;17.648;2023-03-11T07:13:53;2.10;92.20
22173;DHT22;11252;50.596;17.648;2023-03-11T07:16:25;2.10;92.20
22173;DHT22;11252;50.596;17.648;2023-03-11T07:18:58;2.10;92.20
22173;DHT22;11252;50.596;17.648;2023-03-11T07:21:28;2.10;92.20
22173;DHT22;11252;50.596;17.648;2023-03-11T07:23:58;2.10;92.20
22173;DHT22;11252;50.596;17.648;2023-03-11T07:26:27;2.00;92.20
22173;DHT22;11252;50.596;17.648;2023-03-11T07:28:56;2.00;92.20
22173;DHT22;11252;50.596;17.648;2023-03-11T07:31:26;2.00;92.20
22173;DHT22;11252;50.596;17.648;2023-03-11T07:33:56;2.00;92.20
22173;DHT22;11252;50.596;17.648;2023-03-11T07:36:25;2.00;92.20
22173;DHT22;11252;50.596;17.648;2023-03-11T07:39:00;2.00;92.20
22173;DHT22;11252;50.596;17.648;2023-03-11T07:41:34;2.00;92.20
22173;DHT22;11252;50.596;17.648;2023-03-11T07:44:02;2.00;92.20
22173;DHT22;11252;50.596;17.648;2023-03-11T07:46:35;2.00;92.20
22173;DHT22;11252;50.596;17.648;2023-03-11T07:49:02;2.00;92.20
22173;DHT22;11252;50.596;17.648;2023-03-11T07:51:32;1.90;92.20
22173;DHT22;11252;50.596;17.648;2023-03-11T07:54:01;1.90;92.20
22173;DHT22;11252;50.596;17.648;2023-03-11T07:56:32;1.90;92.20
22173;DHT22;11252;50.596;17.648;2023-03-11T07:59:01;1.90;92.20
22173;DHT22;11252;50.596;17.648;2023-03-11T08:01:31;1.80;92.20
22173;DHT22;11252;50.596;17.648;2023-03-11T08:04:04;1.80;92.20
22173;DHT22;11252;50.596;17.648;2023-03-11T08:06:34;1.80;92.20
22173;DHT22;11252;50.596;17.648;2023-03-11T08:09:06;1.80;92.20
22173;DHT22;11252;50.596;17.648;2023-03-11T08:11:35;1.80;92.20
22173;DHT22;11252;50.596;17.648;2023-03-11T08:14:03;1.80;92.20
22173;DHT22;11252;50.596;17.648;2023-03-11T08:16:31;1.80;92.20
22173;DHT22;11252;50.596;17.648;2023-03-11T08:18:59;1.80;92.20
22173;DHT22;11252;50.596;17.648;2023-03-11T08:21:28;1.80;92.20
22173;DHT22;11252;50.596;17.648;2023-03-11T08:24:00;1.80;92.20
22173;DHT22;11252;50.596;17.648;2023-03-11T08:26:30;1.80;92.20
22173;DHT22;11252;50.596;17.648;2023-03-11T08:28:58;1.80;92.20
22173;DHT22;11252;50.596;17.648;2023-03-11T08:31:28;1.80;92.20
22173;DHT22;11252;50.596;17.648;2023-03-11T08:33:58;1.80;92.20
22173;DHT22;11252;50.596;17.648;2023-03-11T08:36:30;1.80;92.20
22173;DHT22;11252;50.596;17.648;2023-03-11T08:38:58;1.80;92.20
22173;DHT22;11252;50.596;17.648;2023-03-11T08:41:26;1.80;92.20
22173;DHT22;11252;50.596;17.648;2023-03-11T08:43:53;1.80;92.20
22173;DHT22;11252;50.596;17.648;2023-03-11T08:46:30;1.80;92.20
22173;DHT22;11252;50.596;17.648;2023-03-11T08:48:59;1.80;92.20
22173;DHT22;11252;50.596;17.648;2023-03-11T08:51:29;1.80;92.20
22173;DHT22;11252;50.596;17.648;2023-03-11T08:54:00;1.80;92.20
22173;DHT22;11252;50.596;17.648;2023-03-11T08:56:28;1.80;92.20
22173;DHT22;11252;50.596;17.648;2023-03-11T08:58:57;1.80;92.20
22173;DHT22;11252;50.596;17.648;2023-03-11T09:01:27;1.80;92.20
22173;DHT22;11252;50.596;17.648;2023-03-11T09:03:56;1.80;92.20
22173;DHT22;11252;50.596;17.648;2023-03-11T09:06:24;1.80;92.20
22173;DHT22;11252;50.596;17.648;2023-03-11T09:08:51;1.70;92.20
22173;DHT22;11252;50.596;17.648;2023-03-11T09:11:19;1.70;92.20
22173;DHT22;11252;50.596;17.648;2023-03-11T09:13:48;1.70;92.20
22173;DHT22;11252;50.596;17.648;2023-03-11T09:16:22;1.60;92.20
22173;DHT22;11252;50.596;17.648;2023-03-11T09:18:49;1.60;92.20
22173;DHT22;11252;50.596;17.648;2023-03-11T09:21:17;1.60;92.20
22173;DHT22;11252;50.596;17.648;2023-03-11T09:23:44;1.60;92.20
22173;DHT22;11252;50.596;17.648;2023-03-11T09:26:12;1.60;92.20
22173;DHT22;11252;50.596;17.648;2023-03-11T09:28:41;1.60;92.20
22173;DHT22;11252;50.596;17.648;2023-03-11T09:31:08;1.60;92.20
22173;DHT22;11252;50.596;17.648;2023-03-11T09:33:38;1.60;92.20
22173;DHT22;11252;50.596;17.648;2023-03-11T09:36:06;1.70;92.20
22173;DHT22;11252;50.596;17.648;2023-03-11T09:38:34;1.70;92.20
22173;DHT22;11252;50.596;17.648;2023-03-11T09:54:36;1.60;92.20
22173;DHT22;11252;50.596;17.648;2023-03-11T09:57:05;1.60;92.20
22173;DHT22;11252;50.596;17.648;2023-03-11T09:59:36;1.60;92.20
22173;DHT22;11252;50.596;17.648;2023-03-11T10:02:05;1.60;92.20
22173;DHT22;11252;50.596;17.648;2023-03-11T10:04:38;1.70;92.20
22173;DHT22;11252;50.596;17.648;2023-03-11T10:07:20;1.70;92.20
22173;DHT22;11252;50.596;17.648;2023-03-11T10:09:57;1.70;92.20
22173;DHT22;11252;50.596;17.648;2023-03-11T10:15:41;1.60;92.20
22173;DHT22;11252;50.596;17.648;2023-03-11T10:21:17;1.60;92.20
22173;DHT22;11252;50.596;17.648;2023-03-11T10:26:53;1.80;92.20
22173;DHT22;11252;50.596;17.648;2023-03-11T10:29:42;1.90;92.20
22173;DHT22;11252;50.596;17.648;2023-03-11T10:32:23;1.90;92.20
22173;DHT22;11252;50.596;17.648;2023-03-11T10:34:59;2.00;92.20
22173;DHT22;11252;50.596;17.648;2023-03-11T10:37:40;2.00;92.20
22173;DHT22;11252;50.596;17.648;2023-03-11T10:40:28;1.90;92.20
22173;DHT22;11252;50.596;17.648;2023-03-11T10:42:58;1.90;92.20
22173;DHT22;11252;50.596;17.648;2023-03-11T10:45:33;1.90;92.20
22173;DHT22;11252;50.596;17.648;2023-03-11T10:48:14;1.80;92.20
22173;DHT22;11252;50.596;17.648;2023-03-11T10:53:56;1.90;92.20
22173;DHT22;11252;50.596;17.648;2023-03-11T10:56:33;1.70;92.20
22173;DHT22;11252;50.596;17.648;2023-03-11T10:59:03;1.80;92.20
22173;DHT22;11252;50.596;17.648;2023-03-11T11:01:31;1.90;92.20
22173;DHT22;11252;50.596;17.648;2023-03-11T11:04:01;2.00;92.20
22173;DHT22;11252;50.596;17.648;2023-03-11T11:06:31;2.00;92.20
22173;DHT22;11252;50.596;17.648;2023-03-11T11:12:04;2.10;92.20
22173;DHT22;11252;50.596;17.648;2023-03-11T11:17:35;2.10;92.20
22173;DHT22;11252;50.596;17.648;2023-03-11T11:20:03;2.00;92.20
22173;DHT22;11252;50.596;17.648;2023-03-11T11:22:50;2.10;92.20
22173;DHT22;11252;50.596;17.648;2023-03-11T11:25:31;2.10;92.20
22173;DHT22;11252;50.596;17.648;2023-03-11T11:28:14;2.20;92.20
22173;DHT22;11252;50.596;17.648;2023-03-11T11:30:57;2.40;92.20
22173;DHT22;11252;50.596;17.648;2023-03-11T11:33:37;2.40;92.20
22173;DHT22;11252;50.596;17.648;2023-03-11T11:36:12;2.40;92.20
22173;DHT22;11252;50.596;17.648;2023-03-11T11:38:41;2.40;92.20
22173;DHT22;11252;50.596;17.648;2023-03-11T11:41:14;2.30;92.20
22173;DHT22;11252;50.596;17.648;2023-03-11T11:44:03;2.10;92.20
22173;DHT22;11252;50.596;17.648;2023-03-11T11:47:41;1.90;92.20
22173;DHT22;11252;50.596;17.648;2023-03-11T11:49:55;1.60;92.20
22173;DHT22;11252;50.596;17.648;2023-03-11T11:52:35;1.50;92.20
22173;DHT22;11252;50.596;17.648;2023-03-11T11:55:17;1.50;92.20
22173;DHT22;11252;50.596;17.648;2023-03-11T11:57:46;1.60;92.20
22173;DHT22;11252;50.596;17.648;2023-03-11T12:00:23;1.60;92.20
22173;DHT22;11252;50.596;17.648;2023-03-11T12:06:01;1.80;92.20
22173;DHT22;11252;50.596;17.648;2023-03-11T12:17:01;2.20;92.20
22173;DHT22;11252;50.596;17.648;2023-03-11T12:22:29;2.10;92.20
22173;DHT22;11252;50.596;17.648;2023-03-11T12:25:11;2.00;92.20
22173;DHT22;11252;50.596;17.648;2023-03-11T12:30:54;2.00;92.20
22173;DHT22;11252;50.596;17.648;2023-03-11T12:35:53;2.20;92.20
22173;DHT22;11252;50.596;17.648;2023-03-11T12:38:33;2.30;92.20
22173;DHT22;11252;50.596;17.648;2023-03-11T12:46:13;2.30;92.20
22173;DHT22;11252;50.596;17.648;2023-03-11T12:49:10;2.20;92.20
22173;DHT22;11252;50.596;17.648;2023-03-11T13:05:26;2.30;92.20
22173;DHT22;11252;50.596;17.648;2023-03-11T13:08:14;3.20;92.20
22173;DHT22;11252;50.596;17.648;2023-03-11T13:10:45;3.60;92.20
22173;DHT22;11252;50.596;17.648;2023-03-11T13:13:38;3.70;92.20
22173;DHT22;11252;50.596;17.648;2023-03-11T13:21:55;3.20;92.20
22173;DHT22;11252;50.596;17.648;2023-03-11T13:33:06;3.10;92.20
22173;DHT22;11252;50.596;17.648;2023-03-11T13:36:12;3.00;92.20
22173;DHT22;11252;50.596;17.648;2023-03-11T13:38:59;2.90;92.20
22173;DHT22;11252;50.596;17.648;2023-03-11T13:41:35;2.80;92.20
22173;DHT22;11252;50.596;17.648;2023-03-11T13:47:02;2.60;92.20
22173;DHT22;11252;50.596;17.648;2023-03-11T13:52:43;2.50;92.20
22173;DHT22;11252;50.596;17.648;2023-03-11T13:55:22;2.50;92.20
22173;DHT22;11252;50.596;17.648;2023-03-11T13:57:55;2.50;92.20
22173;DHT22;11252;50.596;17.648;2023-03-11T14:00:28;2.30;92.20
22173;DHT22;11252;50.596;17.648;2023-03-11T14:03:04;2.30;92.20
22173;DHT22;11252;50.596;17.648;2023-03-11T14:05:42;2.30;92.20
22173;DHT22;11252;50.596;17.648;2023-03-11T14:10:56;2.10;92.20
22173;DHT22;11252;50.596;17.648;2023-03-11T14:13:26;2.10;92.20
22173;DHT22;11252;50.596;17.648;2023-03-11T14:18:46;2.40;92.20
22173;DHT22;11252;50.596;17.648;2023-03-11T14:21:17;2.50;92.20
22173;DHT22;11252;50.596;17.648;2023-03-11T14:23:47;2.60;92.20
22173;DHT22;11252;50.596;17.648;2023-03-11T14:26:21;2.50;92.20
22173;DHT22;11252;50.596;17.648;2023-03-11T14:28:57;2.40;92.20
22173;DHT22;11252;50.596;17.648;2023-03-11T14:31:37;2.30;92.20
22173;DHT22;11252;50.596;17.648;2023-03-11T14:34:15;2.20;92.20
22173;DHT22;11252;50.596;17.648;2023-03-11T14:36:47;2.10;92.20
22173;DHT22;11252;50.596;17.648;2023-03-11T14:39:37;1.90;92.20
22173;DHT22;11252;50.596;17.648;2023-03-11T14:50:23;2.00;92.20
22173;DHT22;11252;50.596;17.648;2023-03-11T14:55:23;2.00;92.20
22173;DHT22;11252;50.596;17.648;2023-03-11T14:58:12;2.10;92.20
22173;DHT22;11252;50.596;17.648;2023-03-11T15:03:31;2.30;92.20
22173;DHT22;11252;50.596;17.648;2023-03-11T15:06:08;2.40;92.20
22173;DHT22;11252;50.596;17.648;2023-03-11T15:08:43;2.40;92.20
22173;DHT22;11252;50.596;17.648;2023-03-11T15:13:43;2.20;92.20
22173;DHT22;11252;50.596;17.648;2023-03-11T15:18:59;1.90;92.20
22173;DHT22;11252;50.596;17.648;2023-03-11T15:21:28;1.80;92.20
22173;DHT22;11252;50.596;17.648;2023-03-11T15:24:03;1.60;92.20
22173;DHT22;11252;50.596;17.648;2023-03-11T15:26:34;1.60;92.20
22173;DHT22;11252;50.596;17.648;2023-03-11T15:29:15;1.60;92.20
22173;DHT22;11252;50.596;17.648;2023-03-11T15:31:43;1.60;92.20
22173;DHT22;11252;50.596;17.648;2023-03-11T15:44:59;1.50;92.20
22173;DHT22;11252;50.596;17.648;2023-03-11T15:47:27;1.50;92.20
22173;DHT22;11252;50.596;17.648;2023-03-11T15:49:55;1.50;92.20
22173;DHT22;11252;50.596;17.648;2023-03-11T15:52:22;1.50;92.20
22173;DHT22;11252;50.596;17.648;2023-03-11T15:54:50;1.50;92.20
22173;DHT22;11252;50.596;17.648;2023-03-11T15:57:25;1.50;92.20
22173;DHT22;11252;50.596;17.648;2023-03-11T15:59:54;1.40;92.20
22173;DHT22;11252;50.596;17.648;2023-03-11T16:02:25;1.40;92.20
22173;DHT22;11252;50.596;17.648;2023-03-11T16:04:54;1.30;92.20
22173;DHT22;11252;50.596;17.648;2023-03-11T16:07:23;1.30;92.20
22173;DHT22;11252;50.596;17.648;2023-03-11T16:10:06;1.20;92.20
22173;DHT22;11252;50.596;17.648;2023-03-11T16:12:34;1.30;92.20
22173;DHT22;11252;50.596;17.648;2023-03-11T16:15:01;1.30;92.20
22173;DHT22;11252;50.596;17.648;2023-03-11T16:17:30;1.30;92.20
22173;DHT22;11252;50.596;17.648;2023-03-11T16:20:15;1.20;92.20
22173;DHT22;11252;50.596;17.648;2023-03-11T16:22:43;1.30;92.20
22173;DHT22;11252;50.596;17.648;2023-03-11T16:27:51;1.30;92.20
22173;DHT22;11252;50.596;17.648;2023-03-11T16:30:19;1.30;92.20
22173;DHT22;11252;50.596;17.648;2023-03-11T16:32:47;1.30;92.20
22173;DHT22;11252;50.596;17.648;2023-03-11T16:35:15;1.20;92.20
22173;DHT22;11252;50.596;17.648;2023-03-11T16:37:43;1.30;92.20
22173;DHT22;11252;50.596;17.648;2023-03-11T16:40:14;1.20;92.20
22173;DHT22;11252;50.596;17.648;2023-03-11T16:42:42;1.30;92.20
22173;DHT22;11252;50.596;17.648;2023-03-11T16:45:11;1.20;92.20
22173;DHT22;11252;50.596;17.648;2023-03-11T16:47:40;1.20;92.20
22173;DHT22;11252;50.596;17.648;2023-03-11T16:50:09;1.20;92.20
22173;DHT22;11252;50.596;17.648;2023-03-11T16:52:37;1.30;92.20
22173;DHT22;11252;50.596;17.648;2023-03-11T16:55:05;1.20;92.20
22173;DHT22;11252;50.596;17.648;2023-03-11T16:57:36;1.30;92.20
22173;DHT22;11252;50.596;17.648;2023-03-11T17:00:06;1.30;92.20
22173;DHT22;11252;50.596;17.648;2023-03-11T17:02:36;1.30;92.20
22173;DHT22;11252;50.596;17.648;2023-03-11T17:05:04;1.30;92.20
22173;DHT22;11252;50.596;17.648;2023-03-11T17:07:32;1.30;92.20
22173;DHT22;11252;50.596;17.648;2023-03-11T17:10:00;1.30;92.20
22173;DHT22;11252;50.596;17.648;2023-03-11T17:12:28;1.30;92.20
22173;DHT22;11252;50.596;17.648;2023-03-11T17:14:56;1.30;92.20
22173;DHT22;11252;50.596;17.648;2023-03-11T17:17:24;1.30;92.20
22173;DHT22;11252;50.596;17.648;2023-03-11T17:19:51;1.30;92.20
22173;DHT22;11252;50.596;17.648;2023-03-11T17:22:18;1.30;92.20
22173;DHT22;11252;50.596;17.648;2023-03-11T17:24:46;1.30;92.20
22173;DHT22;11252;50.596;17.648;2023-03-11T17:27:13;1.20;92.20
22173;DHT22;11252;50.596;17.648;2023-03-11T17:29:41;1.30;92.20
22173;DHT22;11252;50.596;17.648;2023-03-11T17:32:08;1.30;92.20
22173;DHT22;11252;50.596;17.648;2023-03-11T17:34:43;1.20;92.20
22173;DHT22;11252;50.596;17.648;2023-03-11T17:37:10;1.30;92.20
22173;DHT22;11252;50.596;17.648;2023-03-11T17:39:38;1.30;92.20
22173;DHT22;11252;50.596;17.648;2023-03-11T17:42:05;1.30;92.20
22173;DHT22;11252;50.596;17.648;2023-03-11T17:44:32;1.20;92.20
22173;DHT22;11252;50.596;17.648;2023-03-11T17:47:16;1.30;92.20
22173;DHT22;11252;50.596;17.648;2023-03-11T17:49:47;1.30;92.20
22173;DHT22;11252;50.596;17.648;2023-03-11T17:52:14;1.30;92.20
22173;DHT22;11252;50.596;17.648;2023-03-11T17:54:42;1.30;92.20
22173;DHT22;11252;50.596;17.648;2023-03-11T17:57:10;1.30;92.20
22173;DHT22;11252;50.596;17.648;2023-03-11T17:59:38;1.40;92.20
22173;DHT22;11252;50.596;17.648;2023-03-11T18:02:06;1.40;92.20
22173;DHT22;11252;50.596;17.648;2023-03-11T18:04:34;1.30;92.20
22173;DHT22;11252;50.596;17.648;2023-03-11T18:07:02;1.30;92.20
22173;DHT22;11252;50.596;17.648;2023-03-11T18:09:29;1.30;92.20
22173;DHT22;11252;50.596;17.648;2023-03-11T18:11:57;1.30;92.20